Time;durP1;ratioP1;P1;durP2;ratioP2;P2;SDS_P1;SDS_P2;PMS_P1;PMS_P2;Temp;Humidity;BMP_temperature;BMP_pressure;BME280_temperature;BME280_humidity;BME280_pressure;Samples;Min_cycle;Max_cycle;Signal;HPM_P1;HPM_P2
2022/02/06 00:00:31;;;;;;;7.63;1.70;;;;;;;5.55;90.49;101129.31;4981334;28;20408;-65
2022/02/06 00:02:57;;;;;;;15.20;1.77;;;;;;;5.50;90.39;101116.00;4970567;28;20118;-65
2022/02/06 00:05:23;;;;;;;17.48;2.38;;;;;;;5.53;90.92;101118.31;4986901;28;20170;-65
2022/02/06 00:07:49;;;;;;;5.82;1.70;;;;;;;5.57;90.91;101129.19;4967338;28;20034;-64
2022/02/06 00:10:16;;;;;;;11.63;1.63;;;;;;;5.59;89.96;101110.13;4983532;28;20042;-65
2022/02/06 00:12:41;;;;;;;12.50;2.60;;;;;;;5.60;89.60;101101.50;4979174;28;20376;-65
2022/02/06 00:15:07;;;;;;;7.30;2.15;;;;;;;5.60;89.75;101091.22;4968453;28;20038;-65
2022/02/06 00:17:33;;;;;;;12.77;2.03;;;;;;;5.59;90.01;101079.25;5055493;23;20040;-78
2022/02/06 00:19:59;;;;;;;10.75;1.83;;;;;;;5.63;89.30;101072.97;5062829;28;20028;-76
2022/02/06 00:22:39;;;;;;;13.23;2.67;;;;;;;5.62;89.38;101061.03;5032119;28;20053;-76
2022/02/06 00:32:58;;;;;;;9.00;1.77;;;;;;;5.64;88.65;101045.47;5062457;28;20036;-76
2022/02/06 00:38:24;;;;;;;7.47;2.08;;;;;;;5.80;88.03;101045.94;5064448;28;20037;-76
2022/02/06 00:41:12;;;;;;;21.05;2.38;;;;;;;5.79;87.67;101046.88;5059477;28;20031;-76
2022/02/06 00:43:38;;;;;;;8.85;1.50;;;;;;;5.86;87.08;101039.50;5047604;28;20051;-76
2022/02/06 00:46:05;;;;;;;9.63;2.22;;;;;;;5.80;87.02;101021.94;5070667;28;20062;-76
2022/02/06 00:48:34;;;;;;;11.45;1.95;;;;;;;5.83;86.92;101032.00;5047822;28;20102;-77
2022/02/06 00:51:12;;;;;;;7.30;1.40;;;;;;;5.82;86.44;101026.06;5071195;28;20067;-76
2022/02/06 00:53:38;;;;;;;15.85;1.90;;;;;;;5.84;86.03;101018.22;5049066;28;20426;-76
2022/02/06 00:56:04;;;;;;;11.98;1.88;;;;;;;5.88;85.78;101017.03;5049672;28;20039;-76
2022/02/06 00:58:29;;;;;;;16.17;2.33;;;;;;;5.91;85.37;101003.91;5051173;28;20070;-76
2022/02/06 01:00:55;;;;;;;12.85;2.10;;;;;;;6.00;85.62;100999.84;5058312;28;20028;-76
2022/02/06 01:03:21;;;;;;;9.82;1.95;;;;;;;5.96;85.58;101006.16;5042843;28;20020;-76
2022/02/06 01:05:46;;;;;;;7.80;1.80;;;;;;;5.93;85.93;100998.66;5047505;28;20041;-76
2022/02/06 01:08:11;;;;;;;6.55;1.90;;;;;;;6.00;85.63;100990.34;5048240;28;20033;-76
2022/02/06 01:10:37;;;;;;;11.48;2.33;;;;;;;5.99;85.62;101004.19;5046163;28;20040;-76
2022/02/06 01:13:18;;;;;;;8.07;1.65;;;;;;;5.98;85.62;100986.28;5081474;28;20037;-76
2022/02/06 01:15:56;;;;;;;13.70;2.13;;;;;;;5.92;86.49;100981.59;5058500;28;20044;-77
2022/02/06 01:18:34;;;;;;;12.82;2.83;;;;;;;5.89;86.76;100968.94;5043180;28;20055;-76
2022/02/06 01:21:06;;;;;;;8.68;2.75;;;;;;;5.92;86.36;100972.09;5050188;28;20087;-76
2022/02/06 01:23:57;;;;;;;12.65;2.00;;;;;;;5.96;86.50;100985.56;5064168;28;20430;-77
2022/02/06 01:26:37;;;;;;;14.98;2.50;;;;;;;5.96;86.31;100970.13;5080936;28;20118;-77
2022/02/06 01:29:12;;;;;;;12.13;1.95;;;;;;;5.94;85.86;100959.09;5065243;28;20036;-76
2022/02/06 01:31:59;;;;;;;11.00;2.13;;;;;;;5.97;86.28;100957.16;5071746;28;20047;-77
2022/02/06 01:34:38;;;;;;;13.18;2.00;;;;;;;5.97;85.88;100957.16;5064926;28;20083;-77
2022/02/06 01:37:19;;;;;;;7.53;2.20;;;;;;;6.01;85.92;100955.94;5043690;28;20036;-77
2022/02/06 01:42:34;;;;;;;10.55;2.20;;;;;;;5.98;87.19;100951.03;5065729;28;20028;-76
2022/02/06 02:14:13;;;;;;;10.07;1.58;;;;;;;5.91;89.76;100893.22;5084332;28;20033;-77
2022/02/06 02:17:31;;;;;;;11.55;2.00;;;;;;;5.83;90.25;100887.88;5055539;28;20068;-77
2022/02/06 02:22:31;;;;;;;12.35;2.83;;;;;;;5.80;91.14;100883.81;5053341;28;20036;-77
2022/02/06 02:48:17;;;;;;;8.82;2.22;;;;;;;5.84;92.72;100831.16;5068975;28;20302;-77
2022/02/06 02:50:48;;;;;;;10.43;2.30;;;;;;;5.85;91.84;100819.91;5081500;28;20029;-77
2022/02/06 02:53:28;;;;;;;12.80;2.30;;;;;;;5.93;92.12;100818.47;5034847;28;20033;-76
2022/02/06 03:03:36;;;;;;;13.75;2.60;;;;;;;5.89;92.83;100801.66;5050064;28;20174;-76
2022/02/06 03:06:04;;;;;;;9.57;2.30;;;;;;;5.91;92.62;100787.69;5065200;28;20089;-77
2022/02/06 03:08:32;;;;;;;13.45;2.60;;;;;;;5.89;93.17;100788.78;5051718;28;20043;-76
2022/02/06 03:11:00;;;;;;;18.17;2.13;;;;;;;5.80;93.84;100796.31;5049420;28;20081;-77
2022/02/06 03:13:36;;;;;;;14.35;2.25;;;;;;;5.78;93.79;100781.94;5069658;28;20029;-77
2022/02/06 03:16:16;;;;;;;17.02;2.90;;;;;;;5.74;93.80;100793.41;5031233;28;20382;-78
2022/02/06 03:21:23;;;;;;;14.25;2.10;;;;;;;5.88;93.30;100779.41;5067539;28;20032;-76
2022/02/06 03:23:52;;;;;;;16.38;2.92;;;;;;;5.83;93.79;100779.81;5065600;28;20524;-77
2022/02/06 03:26:22;;;;;;;14.13;3.38;;;;;;;5.84;93.77;100771.16;5064883;28;20032;-78
2022/02/06 03:28:48;;;;;;;8.27;3.15;;;;;;;5.83;93.91;100780.59;5081881;28;20086;-76
2022/02/06 03:31:14;;;;;;;9.77;2.28;;;;;;;5.82;93.89;100781.56;5043242;28;20063;-77
2022/02/06 03:33:40;;;;;;;11.35;2.72;;;;;;;5.85;93.56;100777.91;5051646;28;20040;-77
2022/02/06 03:36:05;;;;;;;13.35;3.22;;;;;;;5.83;94.02;100772.88;5052145;28;20039;-78
2022/02/06 03:38:31;;;;;;;10.80;2.13;;;;;;;5.76;94.57;100773.53;5031695;28;20115;-77
2022/02/06 03:41:04;;;;;;;15.13;3.45;;;;;;;5.84;94.83;100771.16;5063876;28;20052;-77
2022/02/06 03:46:05;;;;;;;9.95;2.30;;;;;;;5.76;95.18;100747.78;5043646;28;20028;-77
2022/02/06 03:48:45;;;;;;;18.17;2.53;;;;;;;5.77;94.89;100752.81;5067492;28;20533;-77
2022/02/06 03:51:20;;;;;;;13.20;2.75;;;;;;;5.78;95.35;100753.63;5067569;28;20059;-78
2022/02/06 03:53:49;;;;;;;12.98;3.05;;;;;;;5.74;95.58;100750.47;5048905;28;20479;-77
2022/02/06 03:56:14;;;;;;;10.82;2.60;;;;;;;5.70;95.96;100740.59;5083078;28;20050;-79
2022/02/06 03:58:40;;;;;;;9.90;2.70;;;;;;;5.74;96.16;100745.34;5031631;28;20478;-77
2022/02/06 04:01:05;;;;;;;10.40;3.03;;;;;;;5.69;96.38;100739.78;5047716;28;20032;-77
2022/02/06 04:03:31;;;;;;;10.45;2.47;;;;;;;5.80;96.32;100746.59;5035468;28;20409;-77
2022/02/06 04:05:56;;;;;;;18.45;2.72;;;;;;;5.71;96.80;100749.91;5035050;28;20025;-77
2022/02/06 04:08:22;;;;;;;12.07;2.35;;;;;;;5.70;96.80;100732.84;5081905;28;20043;-77
2022/02/06 04:10:50;;;;;;;12.88;2.58;;;;;;;5.72;97.11;100730.97;5067947;28;20073;-77
2022/02/06 04:13:23;;;;;;;16.23;2.50;;;;;;;5.71;97.33;100735.31;5082181;28;20039;-78
2022/02/06 04:15:56;;;;;;;12.50;2.75;;;;;;;5.69;97.77;100741.50;5084363;28;20058;-78
2022/02/06 04:18:35;;;;;;;14.68;2.60;;;;;;;5.66;98.14;100742.59;5064118;28;20036;-77
2022/02/06 04:21:01;;;;;;;12.90;2.50;;;;;;;5.68;98.05;100732.97;5058821;28;20036;-77
2022/02/06 04:23:27;;;;;;;10.38;2.10;;;;;;;5.64;98.28;100727.28;5074719;28;20331;-77
2022/02/06 04:25:52;;;;;;;19.02;2.60;;;;;;;5.66;98.04;100709.13;5037524;28;20043;-77
2022/02/06 04:28:17;;;;;;;10.02;2.25;;;;;;;5.59;97.94;100711.38;5068560;28;20044;-78
2022/02/06 04:30:43;;;;;;;12.23;3.08;;;;;;;5.64;97.88;100714.41;5070814;28;20036;-77
2022/02/06 04:33:09;;;;;;;9.30;2.95;;;;;;;5.66;97.90;100709.94;5034686;28;20097;-77
2022/02/06 04:35:37;;;;;;;14.63;3.10;;;;;;;5.63;97.86;100702.50;5064712;28;20196;-77
2022/02/06 04:43:36;;;;;;;19.80;3.05;;;;;;;5.69;97.78;100672.88;5045154;28;20033;-77
2022/02/06 05:23:02;;;;;;;12.10;2.38;;;;;;;5.80;98.16;100616.19;5068727;28;20414;-79
2022/02/06 05:30:27;;;;;;;12.02;3.10;;;;;;;5.80;97.41;100589.63;5042560;28;20040;-77
2022/02/06 05:35:22;;;;;;;9.93;2.50;;;;;;;5.80;98.24;100579.31;5066024;28;20041;-76
2022/02/06 05:37:48;;;;;;;12.30;2.80;;;;;;;5.80;97.80;100559.56;5054036;28;20044;-76
2022/02/06 05:40:13;;;;;;;13.52;2.83;;;;;;;5.80;97.82;100556.16;5050849;28;20033;-76
2022/02/06 05:42:39;;;;;;;14.02;3.00;;;;;;;5.84;98.15;100563.50;5063764;28;20510;-77
2022/02/06 05:45:05;;;;;;;15.48;2.13;;;;;;;5.81;98.28;100553.47;5035971;28;20079;-78
2022/02/06 05:47:33;;;;;;;5.78;2.20;;;;;;;5.84;98.40;100570.44;5082061;28;20043;-77
2022/02/06 05:49:59;;;;;;;13.82;2.50;;;;;;;5.87;98.29;100556.47;5071904;28;20477;-75
2022/02/06 05:52:26;;;;;;;9.20;2.15;;;;;;;5.82;98.50;100562.84;5035407;28;20096;-77
2022/02/06 05:54:51;;;;;;;7.68;1.70;;;;;;;5.87;98.39;100556.47;5039802;28;20048;-77
2022/02/06 05:57:17;;;;;;;14.32;2.17;;;;;;;5.81;98.55;100542.38;5037724;28;20028;-78
2022/02/06 05:59:44;;;;;;;9.43;2.20;;;;;;;5.90;98.14;100549.31;5035969;28;20139;-77
2022/02/06 06:02:10;;;;;;;7.72;1.95;;;;;;;5.88;98.65;100553.78;5071902;28;20071;-77
2022/02/06 06:04:35;;;;;;;7.03;2.50;;;;;;;5.88;99.11;100543.47;5048136;28;20434;-78
2022/02/06 06:07:04;;;;;;;9.73;2.35;;;;;;;5.88;98.90;100543.47;5070301;28;20527;-77
2022/02/06 06:09:30;;;;;;;6.65;2.30;;;;;;;5.86;98.62;100555.66;5051646;28;20035;-76
2022/02/06 06:11:56;;;;;;;4.97;2.15;;;;;;;5.89;99.22;100528.84;5070821;28;20391;-78
2022/02/06 06:14:27;;;;;;;11.23;2.67;;;;;;;5.87;99.04;100535.88;5033853;28;20067;-77
2022/02/06 06:16:53;;;;;;;7.13;2.50;;;;;;;5.90;99.43;100530.47;5045370;28;20581;-77
2022/02/06 06:19:18;;;;;;;9.00;2.08;;;;;;;5.88;99.31;100540.91;5050591;28;20037;-78
2022/02/06 06:21:46;;;;;;;11.93;2.55;;;;;;;5.92;99.08;100531.97;5053598;28;20028;-77
2022/02/06 06:24:16;;;;;;;6.00;1.90;;;;;;;5.90;99.17;100523.56;5083778;28;20040;-77
2022/02/06 06:26:41;;;;;;;9.95;2.35;;;;;;;5.91;99.41;100514.88;5045685;28;20139;-77
2022/02/06 06:29:07;;;;;;;8.02;2.80;;;;;;;5.95;99.10;100520.59;5050923;28;20024;-76
2022/02/06 06:31:32;;;;;;;6.57;2.45;;;;;;;5.98;99.42;100516.03;5051588;28;20402;-76
2022/02/06 06:33:58;;;;;;;7.60;2.50;;;;;;;5.98;99.29;100513.44;5050775;28;20083;-77
2022/02/06 06:36:24;;;;;;;5.32;1.80;;;;;;;5.96;99.33;100520.50;5035272;28;20402;-77
2022/02/06 06:38:51;;;;;;;10.75;2.22;;;;;;;5.97;99.34;100498.13;5048517;28;20029;-77
2022/02/06 06:41:17;;;;;;;10.18;2.35;;;;;;;5.99;99.39;100486.78;5067690;28;20041;-78
2022/02/06 06:43:42;;;;;;;7.95;1.90;;;;;;;5.98;99.29;100508.31;5050981;28;20036;-76
2022/02/06 06:46:08;;;;;;;11.18;3.10;;;;;;;5.99;99.31;100502.22;5064630;28;20417;-76
2022/02/06 06:48:33;;;;;;;19.77;4.63;;;;;;;6.08;99.01;100490.28;5065613;28;20414;-77
2022/02/06 06:50:59;;;;;;;10.90;3.50;;;;;;;6.08;98.84;100468.88;5064017;28;20163;-78
2022/02/06 06:53:25;;;;;;;18.50;7.72;;;;;;;6.10;98.65;100475.53;5046128;28;20079;-76
2022/02/06 06:55:59;;;;;;;14.23;5.80;;;;;;;6.11;98.68;100472.00;5075285;28;20402;-77
2022/02/06 06:58:36;;;;;;;14.70;5.80;;;;;;;6.08;98.64;100461.16;5047650;28;20028;-77
2022/02/06 07:03:31;;;;;;;11.18;2.30;;;;;;;6.04;98.91;100460.63;5063226;28;20500;-76
2022/02/06 07:05:57;;;;;;;11.85;2.83;;;;;;;6.06;99.03;100465.63;5051082;28;20414;-76
2022/02/06 07:08:23;;;;;;;10.85;2.55;;;;;;;6.10;99.10;100472.13;5046943;28;20024;-77
2022/02/06 07:10:49;;;;;;;10.98;3.38;;;;;;;6.11;98.89;100491.81;5076387;28;20514;-78
2022/02/06 07:13:18;;;;;;;13.23;2.70;;;;;;;6.10;99.16;100474.72;5033560;28;20172;-77
2022/02/06 07:15:43;;;;;;;15.52;2.70;;;;;;;6.14;98.85;100468.34;5049158;28;20037;-76
2022/02/06 07:18:09;;;;;;;9.85;2.97;;;;;;;6.05;99.23;100459.69;5066870;28;20032;-77
2022/02/06 07:20:36;;;;;;;11.30;2.67;;;;;;;6.06;99.42;100470.78;5029304;28;20037;-77
2022/02/06 07:23:03;;;;;;;7.82;2.25;;;;;;;6.07;99.32;100469.84;5030631;28;20031;-77
2022/02/06 07:25:29;;;;;;;7.22;2.25;;;;;;;6.06;99.09;100453.56;5043239;28;20401;-77
2022/02/06 07:27:55;;;;;;;9.85;2.83;;;;;;;6.08;99.36;100456.81;5049372;28;20041;-77
2022/02/06 07:30:21;;;;;;;7.70;2.50;;;;;;;6.00;99.91;100441.25;5046547;28;20036;-77
2022/02/06 07:32:47;;;;;;;7.90;2.45;;;;;;;6.05;100.00;100428.78;5035409;28;20032;-78
2022/02/06 07:35:13;;;;;;;5.35;2.50;;;;;;;6.04;99.79;100427.97;5032517;28;20111;-76
2022/02/06 07:37:45;;;;;;;10.57;2.38;;;;;;;6.06;99.81;100430.41;5047919;28;20412;-78
2022/02/06 07:40:12;;;;;;;9.15;2.20;;;;;;;6.04;100.00;100420.25;5030938;28;20036;-77
2022/02/06 07:42:37;;;;;;;13.60;4.22;;;;;;;5.97;99.89;100411.47;5032834;28;20029;-77
2022/02/06 07:45:10;;;;;;;6.80;2.20;;;;;;;6.05;99.56;100410.78;5050624;28;20506;-78
2022/02/06 07:47:37;;;;;;;6.22;2.88;;;;;;;6.09;99.88;100394.09;5047956;28;20435;-78
2022/02/06 07:50:06;;;;;;;9.73;2.08;;;;;;;6.06;99.21;100381.50;5046261;28;20041;-79
2022/02/06 07:52:31;;;;;;;3.85;1.70;;;;;;;6.07;99.32;100388.28;5043424;28;20047;-76
2022/02/06 07:54:57;;;;;;;3.92;1.52;;;;;;;5.99;99.68;100391.53;5050454;28;20029;-76
2022/02/06 07:57:22;;;;;;;3.60;1.70;;;;;;;6.10;99.68;100382.03;5031106;28;20039;-76
2022/02/06 07:59:48;;;;;;;6.00;2.20;;;;;;;6.06;99.94;100366.06;5049408;28;20040;-77
2022/02/06 08:02:13;;;;;;;3.65;1.50;;;;;;;6.15;99.94;100369.56;5046940;28;20028;-77
2022/02/06 08:04:39;;;;;;;7.38;1.60;;;;;;;6.10;99.70;100364.03;5058785;28;20036;-77
2022/02/06 08:07:06;;;;;;;3.65;1.30;;;;;;;6.04;99.69;100353.31;5049383;28;20036;-76
2022/02/06 08:09:42;;;;;;;8.95;1.60;;;;;;;6.15;99.42;100354.94;5049880;28;21055;-77
2022/02/06 08:12:09;;;;;;;3.83;1.80;;;;;;;6.14;99.47;100337.03;5030851;28;20029;-77
2022/02/06 08:17:15;;;;;;;6.97;3.15;;;;;;;6.12;99.85;100323.50;5048499;28;20554;-77
2022/02/06 08:19:41;;;;;;;5.40;2.33;;;;;;;6.05;99.75;100330.97;5045762;28;20123;-77
2022/02/06 08:22:06;;;;;;;5.18;1.73;;;;;;;6.11;99.85;100312.41;5043054;28;20051;-77
2022/02/06 08:24:32;;;;;;;13.88;2.55;;;;;;;6.19;99.85;100298.81;5025673;28;20025;-76
2022/02/06 08:26:57;;;;;;;7.95;2.00;;;;;;;6.08;100.00;100307.53;5079579;28;20483;-77
2022/02/06 08:29:24;;;;;;;3.58;1.33;;;;;;;6.21;99.80;100300.31;5040335;28;20055;-78
2022/02/06 08:31:49;;;;;;;5.05;1.40;;;;;;;6.24;99.45;100282.00;5065498;28;20048;-77
2022/02/06 08:34:15;;;;;;;3.90;2.10;;;;;;;6.28;99.13;100285.13;5065047;28;20119;-77
2022/02/06 08:36:40;;;;;;;6.78;1.45;;;;;;;6.31;99.18;100294.31;5030146;28;20033;-76
2022/02/06 08:39:06;;;;;;;5.10;1.60;;;;;;;6.26;99.79;100293.94;5044527;28;20043;-77
2022/02/06 08:41:31;;;;;;;4.13;1.05;;;;;;;6.31;99.32;100276.28;5046139;28;20032;-77
2022/02/06 08:43:57;;;;;;;9.32;2.45;;;;;;;6.30;99.21;100272.91;5079676;28;20040;-77
2022/02/06 08:46:22;;;;;;;4.03;1.58;;;;;;;6.41;98.98;100265.00;5060151;28;20028;-78
2022/02/06 08:48:48;;;;;;;6.78;1.70;;;;;;;6.46;99.17;100263.78;5047960;28;20036;-76
2022/02/06 08:51:13;;;;;;;5.68;1.38;;;;;;;6.39;98.89;100258.38;5049948;28;20036;-76
2022/02/06 08:53:39;;;;;;;5.47;1.33;;;;;;;6.39;99.21;100260.97;5054515;28;20247;-77
2022/02/06 08:56:05;;;;;;;6.88;1.42;;;;;;;6.41;98.69;100264.22;5052799;28;20024;-76
2022/02/06 08:58:30;;;;;;;6.32;1.77;;;;;;;6.39;98.66;100240.38;5067957;28;20044;-77
2022/02/06 09:00:55;;;;;;;8.50;3.28;;;;;;;6.44;99.20;100240.72;5053036;28;20494;-77
2022/02/06 09:03:21;;;;;;;26.45;11.65;;;;;;;6.44;98.90;100240.72;5069660;28;20483;-77
2022/02/06 09:05:47;;;;;;;7.43;3.35;;;;;;;6.41;99.11;100236.69;5052900;28;20550;-77
2022/02/06 09:08:12;;;;;;;6.38;2.42;;;;;;;6.50;98.69;100235.03;5035964;28;20079;-77
2022/02/06 09:10:38;;;;;;;7.10;1.90;;;;;;;6.50;98.97;100226.47;5069715;28;20424;-77
2022/02/06 09:13:04;;;;;;;4.32;1.15;;;;;;;6.52;98.74;100204.78;5051850;28;20029;-77
2022/02/06 09:15:30;;;;;;;8.18;2.92;;;;;;;6.54;98.78;100230.41;5036900;28;20457;-77
2022/02/06 09:17:56;;;;;;;2.83;1.90;;;;;;;6.52;99.30;100216.84;5049636;28;20032;-79
2022/02/06 09:20:23;;;;;;;5.40;1.38;;;;;;;6.52;98.96;100209.94;5029599;28;20117;-77
2022/02/06 09:22:49;;;;;;;7.32;1.55;;;;;;;6.58;99.12;100216.28;5035492;28;20032;-78
2022/02/06 09:25:15;;;;;;;2.67;1.10;;;;;;;6.56;99.24;100200.16;5034595;28;20032;-77
2022/02/06 09:27:42;;;;;;;3.33;1.25;;;;;;;6.47;99.66;100199.25;5038042;28;20037;-77
2022/02/06 09:30:15;;;;;;;5.75;1.23;;;;;;;6.50;99.82;100191.22;5052645;28;20032;-77
2022/02/06 09:37:34;;;;;;;3.35;1.15;;;;;;;6.46;100.00;100168.47;5048663;28;20028;-77
2022/02/06 09:40:00;;;;;;;6.25;1.33;;;;;;;6.52;100.00;100173.06;5051750;28;20044;-76
2022/02/06 09:42:27;;;;;;;7.50;1.40;;;;;;;6.52;100.00;100160.19;5057869;28;20457;-77
2022/02/06 09:44:53;;;;;;;3.65;1.38;;;;;;;6.54;100.00;100150.53;5035404;28;20094;-77
2022/02/06 09:47:23;;;;;;;4.03;1.00;;;;;;;6.43;100.00;100156.69;5068967;28;20340;-77
2022/02/06 09:49:50;;;;;;;1.85;1.08;;;;;;;6.50;99.86;100146.63;5038052;28;20298;-77
2022/02/06 09:52:22;;;;;;;4.15;1.33;;;;;;;6.45;100.00;100134.19;5059407;28;20136;-80
2022/02/06 09:54:49;;;;;;;3.40;1.37;;;;;;;6.43;99.98;100151.56;5045224;28;20037;-78
2022/02/06 09:57:25;;;;;;;1.88;0.90;;;;;;;6.49;99.70;100130.34;5070973;28;20107;-77
2022/02/06 09:59:54;;;;;;;2.60;0.90;;;;;;;6.53;99.78;100141.19;5032730;28;20315;-78
2022/02/06 10:02:25;;;;;;;5.25;1.73;;;;;;;6.52;99.44;100131.84;5049033;23;20111;-67
2022/02/06 10:04:53;;;;;;;2.15;1.02;;;;;;;6.51;100.00;100118.13;5044013;28;20044;-67
2022/02/06 10:07:28;;;;;;;2.67;0.82;;;;;;;6.50;100.00;100108.81;5016694;28;20443;-67
2022/02/06 10:10:04;;;;;;;1.15;0.80;;;;;;;6.37;100.00;100101.44;5005991;28;20507;-67
2022/02/06 10:12:36;;;;;;;4.68;1.48;;;;;;;6.47;100.00;100095.41;5012496;28;20531;-66
2022/02/06 10:15:02;;;;;;;5.78;1.00;;;;;;;6.49;100.00;100083.19;5024258;28;20041;-67
2022/02/06 10:17:27;;;;;;;4.45;0.73;;;;;;;6.48;100.00;100074.66;5012622;28;20694;-68
2022/02/06 10:19:55;;;;;;;20.88;7.65;;;;;;;6.44;99.75;100073.31;5005469;28;20033;-67
2022/02/06 10:22:41;;;;;;;3.63;1.60;;;;;;;6.41;99.52;100065.91;5027496;28;20030;-67
2022/02/06 10:25:09;;;;;;;5.82;1.83;;;;;;;6.45;99.70;100064.66;5026391;28;20044;-67
2022/02/06 10:30:52;;;;;;;5.65;1.40;;;;;;;6.46;100.00;100016.50;4992039;28;20044;-67
2022/02/06 10:33:22;;;;;;;1.67;0.85;;;;;;;6.48;99.30;100014.59;4998176;28;20309;-67
2022/02/06 10:35:49;;;;;;;4.32;0.60;;;;;;;6.39;99.22;100003.44;5028342;28;20192;-66
2022/02/06 10:38:26;;;;;;;6.07;1.50;;;;;;;6.47;99.13;99984.66;5014876;28;20034;-68
2022/02/06 10:41:17;;;;;;;4.47;1.30;;;;;;;6.48;99.02;99981.09;5009024;28;20506;-67
2022/02/06 10:44:05;;;;;;;2.30;0.90;;;;;;;6.45;99.00;99979.66;5003818;28;20033;-67
2022/02/06 10:46:33;;;;;;;0.57;0.47;;;;;;;6.51;99.21;99971.31;5021568;28;20790;-66
2022/02/06 10:49:12;;;;;;;1.00;0.75;;;;;;;6.48;99.54;99978.53;5013405;28;20037;-67
2022/02/06 10:51:49;;;;;;;1.25;0.60;;;;;;;6.47;99.36;99951.97;5023391;28;20553;-67
2022/02/06 10:54:17;;;;;;;0.85;0.57;;;;;;;6.51;99.34;99952.50;5023709;28;20045;-67
2022/02/06 10:57:20;;;;;;;4.57;0.80;;;;;;;6.42;99.79;99937.00;4997031;28;20041;-67
2022/02/06 10:59:49;;;;;;;1.48;1.00;;;;;;;6.46;99.80;99926.38;5010204;28;20491;-67
2022/02/06 11:02:20;;;;;;;3.10;0.82;;;;;;;6.55;99.62;99920.31;5026443;28;20376;-67
2022/02/06 11:05:14;;;;;;;1.23;0.75;;;;;;;6.53;99.89;99928.19;5027385;28;20056;-67
2022/02/06 11:08:01;;;;;;;2.60;0.80;;;;;;;6.50;100.00;99913.06;5007701;28;20574;-67
2022/02/06 11:10:30;;;;;;;3.50;0.80;;;;;;;6.57;100.00;99906.34;5020463;28;20396;-67
2022/02/06 11:12:57;;;;;;;2.13;0.85;;;;;;;6.56;99.87;99893.59;5020055;28;20025;-67
2022/02/06 11:15:39;;;;;;;3.75;1.08;;;;;;;6.59;100.00;99880.41;5005864;28;20041;-67
2022/02/06 11:18:21;;;;;;;0.95;0.70;;;;;;;6.55;100.00;99866.22;5010271;28;20040;-67
2022/02/06 11:21:04;;;;;;;2.30;0.80;;;;;;;6.57;100.00;99869.44;5027667;28;20037;-67
2022/02/06 11:23:39;;;;;;;3.55;0.70;;;;;;;6.57;100.00;99864.31;5002967;28;20030;-67
2022/02/06 11:26:05;;;;;;;2.92;0.60;;;;;;;6.55;100.00;99848.19;5022326;28;20440;-67
2022/02/06 11:28:31;;;;;;;2.00;0.73;;;;;;;6.52;100.00;99833.06;4988188;28;20414;-67
2022/02/06 11:30:57;;;;;;;4.90;0.70;;;;;;;6.48;100.00;99824.84;5005248;28;20124;-67
2022/02/06 11:33:23;;;;;;;2.38;0.80;;;;;;;6.52;100.00;99802.94;5005643;28;20111;-66
2022/02/06 11:35:56;;;;;;;2.97;0.70;;;;;;;6.59;100.00;99793.66;5006846;28;20055;-67
2022/02/06 11:44:57;;;;;;;3.47;0.70;;;;;;;6.51;100.00;99757.53;5021104;28;20096;-66
2022/02/06 11:47:35;;;;;;;3.22;0.70;;;;;;;6.61;100.00;99739.38;5008912;28;20033;-68
2022/02/06 11:50:07;;;;;;;1.58;0.68;;;;;;;6.57;100.00;99704.59;5020650;28;20434;-68
2022/02/06 11:53:09;;;;;;;4.38;0.50;;;;;;;6.61;100.00;99726.50;5024431;28;20068;-68
2022/02/06 11:55:44;;;;;;;1.52;0.80;;;;;;;6.62;100.00;99718.63;4943749;28;20504;-68
2022/02/06 11:58:28;;;;;;;1.20;0.60;;;;;;;6.63;100.00;99720.25;5006736;28;20705;-68
2022/02/06 12:01:05;;;;;;;1.23;0.80;;;;;;;6.66;100.00;99693.34;5025470;28;20501;-66
2022/02/06 12:03:50;;;;;;;2.50;0.63;;;;;;;6.62;100.00;99686.91;5018050;28;20050;-66
2022/02/06 12:06:16;;;;;;;1.08;0.55;;;;;;;6.68;100.00;99696.56;5003193;28;20065;-65
2022/02/06 12:09:00;;;;;;;3.25;0.60;;;;;;;6.64;100.00;99690.13;5002639;28;20028;-66
2022/02/06 12:11:26;;;;;;;2.05;1.02;;;;;;;6.62;100.00;99674.03;5002690;28;20515;-66
2022/02/06 12:14:09;;;;;;;4.15;2.40;;;;;;;6.74;100.00;99653.91;5024961;28;20480;-66
2022/02/06 12:19:32;;;;;;;1.42;1.20;;;;;;;6.84;100.00;99649.44;4957763;28;20050;-69
2022/02/06 12:22:26;;;;;;;3.15;1.35;;;;;;;6.86;100.00;99644.94;4971010;28;20034;-69
2022/02/06 12:25:12;;;;;;;5.28;1.17;;;;;;;6.90;100.00;99629.97;4961905;28;20035;-69
2022/02/06 12:27:38;;;;;;;2.35;1.45;;;;;;;6.91;100.00;99627.22;4971164;28;20042;-69
2022/02/06 12:30:06;;;;;;;8.02;1.20;;;;;;;6.94;100.00;99616.56;5005007;28;20119;-69
2022/02/06 12:32:35;;;;;;;3.35;1.05;;;;;;;7.00;100.00;99635.75;5001638;28;20042;-70
2022/02/06 12:37:54;;;;;;;2.42;1.25;;;;;;;7.09;100.00;99634.78;5009359;28;20041;-70
2022/02/06 12:40:23;;;;;;;1.42;0.70;;;;;;;7.13;100.00;99606.91;5010535;28;20136;-69
2022/02/06 12:42:58;;;;;;;2.75;1.10;;;;;;;7.16;100.00;99619.47;5003829;28;20042;-70
2022/02/06 12:45:25;;;;;;;5.18;1.33;;;;;;;7.25;100.00;99628.00;5001983;28;20029;-70
2022/02/06 12:47:56;;;;;;;5.03;0.82;;;;;;;7.29;100.00;99640.44;4986248;28;20034;-69
2022/02/06 12:50:33;;;;;;;1.77;0.55;;;;;;;7.29;100.00;99621.53;5005125;28;20092;-70
2022/02/06 12:53:00;;;;;;;2.35;0.70;;;;;;;7.43;100.00;99646.69;5004022;28;20053;-70
2022/02/06 12:55:31;;;;;;;2.75;0.50;;;;;;;7.46;100.00;99685.06;5001601;28;20073;-70
2022/02/06 12:57:58;;;;;;;1.55;0.57;;;;;;;7.54;100.00;99690.19;5003588;28;20041;-70
2022/02/06 13:00:51;;;;;;;2.72;0.60;;;;;;;7.51;100.00;99739.53;4986135;28;20034;-69
2022/02/06 13:03:27;;;;;;;2.33;0.60;;;;;;;7.45;100.00;99753.06;4986208;28;20077;-70
2022/02/06 13:05:58;;;;;;;1.38;0.30;;;;;;;7.04;96.39;99778.81;4985736;28;20033;-70
2022/02/06 13:08:23;;;;;;;1.40;0.28;;;;;;;6.68;94.45;99788.53;5007651;28;20060;-69
2022/02/06 13:11:15;;;;;;;3.42;0.60;;;;;;;6.39;93.22;99816.25;5002274;28;20492;-70
2022/02/06 13:14:23;;;;;;;3.72;0.20;;;;;;;6.22;93.85;99835.94;5008149;28;20465;-70
2022/02/06 13:16:54;;;;;;;2.58;0.35;;;;;;;6.18;94.92;99849.28;4989597;28;20049;-70
2022/02/06 13:29:51;;;;;;;0.65;0.40;;;;;;;5.95;95.54;99860.03;5000424;28;20033;-69
2022/02/06 13:32:35;;;;;;;3.38;0.50;;;;;;;5.91;94.89;99835.50;5005990;28;20029;-69
2022/02/06 13:35:57;;;;;;;2.42;0.40;;;;;;;5.83;94.45;99861.97;5001263;28;20049;-69
2022/02/06 13:37:59;;;;;;;4.82;0.52;;;;;;;5.91;93.19;99838.09;4994247;28;20137;-69
2022/02/06 13:40:29;;;;;;;0.50;0.20;;;;;;;5.83;93.17;99849.13;5005903;28;20034;-69
2022/02/06 13:43:09;;;;;;;5.88;0.60;;;;;;;5.84;92.97;99839.66;4985983;28;20129;-68
2022/02/06 13:45:38;;;;;;;1.05;0.47;;;;;;;5.92;92.21;99836.34;4990017;28;20060;-68
2022/02/06 13:48:06;;;;;;;2.97;0.70;;;;;;;5.87;92.57;99830.81;4994308;28;20034;-69
2022/02/06 13:50:34;;;;;;;2.88;0.40;;;;;;;5.91;92.43;99834.72;5005448;28;20057;-68
2022/02/06 13:53:17;;;;;;;1.55;0.60;;;;;;;5.93;92.76;99837.94;4990213;28;20045;-68
2022/02/06 13:55:44;;;;;;;1.52;0.50;;;;;;;5.93;91.84;99843.88;5006116;28;20059;-68
2022/02/06 13:58:14;;;;;;;2.25;0.80;;;;;;;5.96;91.86;99850.56;5011227;28;20057;-69
2022/02/06 14:00:57;;;;;;;5.20;0.50;;;;;;;6.08;91.92;99859.63;5006534;28;20078;-68
2022/02/06 14:03:38;;;;;;;0.70;0.40;;;;;;;6.01;91.93;99856.88;4998600;28;20030;-68
2022/02/06 14:06:04;;;;;;;1.60;0.55;;;;;;;5.95;93.23;99856.59;5008347;28;20061;-68
2022/02/06 14:08:33;;;;;;;0.65;0.38;;;;;;;5.92;92.93;99847.44;5012420;28;20064;-68
2022/02/06 14:11:26;;;;;;;3.05;0.50;;;;;;;6.02;93.13;99853.31;5009916;28;20046;-69
2022/02/06 14:13:47;;;;;;;4.35;0.50;;;;;;;5.94;93.36;99860.16;5007640;28;20104;-68
2022/02/06 14:16:13;;;;;;;1.20;0.60;;;;;;;5.94;94.06;99855.81;5005662;28;20030;-68
2022/02/06 14:18:51;;;;;;;1.45;0.90;;;;;;;6.01;93.50;99858.63;4987994;28;20045;-68
2022/02/06 14:21:16;;;;;;;4.65;0.80;;;;;;;5.85;94.75;99860.06;5001242;28;20065;-68
2022/02/06 14:23:43;;;;;;;2.47;0.90;;;;;;;5.96;94.55;99859.06;4988312;28;20500;-68
2022/02/06 14:26:16;;;;;;;2.63;0.40;;;;;;;6.03;93.86;99860.09;5001494;28;20042;-68
2022/02/06 14:28:49;;;;;;;5.57;0.68;;;;;;;6.03;93.14;99875.53;5005571;28;20053;-68
2022/02/06 14:31:41;;;;;;;1.40;0.50;;;;;;;6.08;93.20;99867.34;5005350;28;20041;-68
2022/02/06 14:34:18;;;;;;;4.95;0.98;;;;;;;6.12;92.59;99870.44;5003577;28;20054;-68